Voreifelwetter - Wetterstation Drove - Standort 5043'47" - 0630'49"
Wetterdaten: aktuell Montag, 13.07.2020 15:00
Datum Zeit Temp. A. Feuchte A. Luftdruck Regen Wind Richtung Richtung Sonnenschein Helligkeit Taupunkt Windchill
13.07.2020 15:00 24,9 C 40 % 1018,8 hPa 0,0 mm 8,1 km/h (2 Bft) O-SO 110 15 min 98,4 klux 10,4 C 24,9 C
13.07.2020 14:45 25,4 C 37 % 1018,7 hPa 0,0 mm 12,6 km/h (3 Bft) O45 85 15 min 108 klux 9,6 C 25,4 C
13.07.2020 14:30 25,9 C 36 % 1018,7 hPa 0,0 mm 10,0 km/h (2 Bft) SO45 135 15 min 97,1 klux 9,7 C 25,9 C
13.07.2020 14:15 26,4 C 38 % 1018,7 hPa 0,0 mm 15,5 km/h (3 Bft) NW45 325 15 min 95,5 klux 10,9 C 26,4 C
13.07.2020 14:00 26,0 C 37 % 1018,7 hPa 0,0 mm 12,2 km/h (2 Bft) SO67.5 130 15 min 101 klux 10,2 C 26,0 C
13.07.2020 13:45 25,5 C 37 % 1019,8 hPa 0,0 mm 14,7 km/h (3 Bft) O-SO45 115 15 min 96,0 klux 9,7 C 25,5 C
13.07.2020 13:30 25,3 C 37 % 1019,8 hPa 0,0 mm 13,9 km/h (3 Bft) N-NW45 340 15 min 100 klux 9,6 C 25,3 C
13.07.2020 13:15 25,5 C 39 % 1019,8 hPa 0,0 mm 13,6 km/h (3 Bft) O45 90 15 min 98,0 klux 10,5 C 25,5 C
13.07.2020 13:00 25,4 C 37 % 1019,8 hPa 0,0 mm 10,6 km/h (2 Bft) O-SO45 110 15 min 95,3 klux 9,6 C 25,4 C
13.07.2020 12:45 25,4 C 39 % 1019,8 hPa 0,0 mm 8,5 km/h (2 Bft) O22.5 80 15 min 96,9 klux 10,4 C 25,4 C
13.07.2020 12:30 25,0 C 39 % 1019,8 hPa 0,0 mm 11,0 km/h (2 Bft) O45 100 15 min 91,0 klux 10,1 C 25,0 C
13.07.2020 12:15 24,5 C 39 % 1019,8 hPa 0,0 mm 10,4 km/h (2 Bft) SO45 130 15 min 86,7 klux 9,6 C 24,5 C
13.07.2020 12:00 24,4 C 41 % 1019,8 hPa 0,0 mm 13,3 km/h (3 Bft) O22.5 85 15 min 81,5 klux 10,3 C 24,4 C
13.07.2020 11:45 23,6 C 46 % 1020,9 hPa 0,0 mm 8,9 km/h (2 Bft) O22.5 90 15 min 79,4 klux 11,3 C 23,6 C
13.07.2020 11:30 23,2 C 47 % 1020,9 hPa 0,0 mm 6,8 km/h (2 Bft) NO67.5 40 15 min 77,5 klux 11,3 C 23,2 C
13.07.2020 11:15 22,8 C 48 % 1021,0 hPa 0,0 mm 4,7 km/h (1 Bft) O67.5 95 15 min 74,9 klux 11,2 C 22,8 C
13.07.2020 11:00 22,6 C 50 % 1021,0 hPa 0,0 mm 6,5 km/h (2 Bft) O67.5 100 15 min 71,8 klux 11,6 C 22,6 C
13.07.2020 10:45 22,4 C 54 % 1021,0 hPa 0,0 mm 6,1 km/h (2 Bft) N67.5 350 15 min 68,6 klux 12,6 C 22,4 C
13.07.2020 10:30 21,7 C 55 % 1021,0 hPa 0,0 mm 0,0 km/h (0 Bft) O-SO22.5 115 15 min 65,3 klux 12,3 C 21,7 C
13.07.2020 10:15 21,6 C 53 % 1021,0 hPa 0,0 mm 0,0 km/h (0 Bft) N-NW22.5 340 15 min 61,9 klux 11,6 C 21,6 C
13.07.2020 10:00 21,2 C 56 % 1021,1 hPa 0,0 mm 20,0 km/h (4 Bft) N-NO45 25 15 min 58,6 klux 12,1 C 21,2 C
13.07.2020 09:45 20,9 C 58 % 1022,1 hPa 0,0 mm 0,0 km/h (0 Bft) N-NO67.5 30 15 min 55,5 klux 12,3 C 20,9 C
13.07.2020 09:30 20,1 C 60 % 1022,2 hPa 0,0 mm 0,0 km/h (0 Bft) N22.5 5 15 min 51,7 klux 12,1 C 20,1 C
13.07.2020 09:15 19,8 C 61 % 1022,2 hPa 0,0 mm 0,0 km/h (0 Bft) N-NW 340 15 min 50,5 klux 12,1 C 19,8 C
13.07.2020 09:00 18,9 C 65 % 1022,3 hPa 0,0 mm 0,0 km/h (0 Bft) N-NO 30 15 min 45,6 klux 12,2 C 18,9 C
13.07.2020 08:45 17,8 C 69 % 1022,3 hPa 0,0 mm 0,0 km/h (0 Bft) SO 135 15 min 43,6 klux 12,0 C 17,8 C
13.07.2020 08:30 17,3 C 73 % 1022,4 hPa 0,0 mm 0,0 km/h (0 Bft) S 190 15 min 39,5 klux 12,4 C 17,3 C
13.07.2020 08:15 16,4 C 77 % 1022,5 hPa 0,0 mm 0,0 km/h (0 Bft) S 190 15 min 33,2 klux 12,4 C 16,4 C
13.07.2020 08:00 15,2 C 83 % 1022,5 hPa 0,0 mm 0,0 km/h (0 Bft) S22.5 190 15 min 32,8 klux 12,3 C 15,2 C
13.07.2020 07:45 14,4 C 86 % 1022,6 hPa 0,0 mm 0,0 km/h (0 Bft) S-SW 195 0 min 22,0 klux 12,1 C 14,4 C
13.07.2020 07:30 13,8 C 89 % 1022,6 hPa 0,0 mm 0,0 km/h (0 Bft) S-SW 195 15 min 24,6 klux 12,0 C 13,8 C
13.07.2020 07:15 11,6 C 91 % 1022,8 hPa 0,0 mm 0,0 km/h (0 Bft) S-SW 195 15 min 20,8 klux 10,2 C 11,6 C
13.07.2020 07:00 9,8 C 90 % 1023,0 hPa 0,0 mm 0,0 km/h (0 Bft) S-SW 195 0 min 11,3 klux 8,2 C 9,8 C
13.07.2020 06:45 9,3 C 90 % 1023,0 hPa 0,0 mm 0,0 km/h (0 Bft) S-SW 195 0 min 6,76 klux 7,7 C 9,3 C
13.07.2020 06:30 8,8 C 90 % 1023,0 hPa 0,0 mm 0,0 km/h (0 Bft) S-SW 195 0 min 3,37 klux 7,3 C 8,8 C
13.07.2020 06:15 8,4 C 90 % 1023,1 hPa 0,0 mm 0,0 km/h (0 Bft) NO22.5 35 0 min 2,30 klux 6,9 C 8,4 C
13.07.2020 06:00 8,1 C 89 % 1023,1 hPa 0,0 mm 0,0 km/h (0 Bft) NO22.5 35 0 min 1,36 klux 6,4 C 8,1 C
13.07.2020 05:45 8,1 C 89 % 1023,1 hPa 0,0 mm 0,0 km/h (0 Bft) NO22.5 35 0 min 550 lux 6,4 C 8,1 C
13.07.2020 05:30 8,0 C 89 % 1023,1 hPa 0,0 mm 0,0 km/h (0 Bft) NO22.5 35 0 min 271 lux 6,3 C 8,0 C
13.07.2020 05:15 8,1 C 88 % 1023,1 hPa 0,0 mm 0,0 km/h (0 Bft) NO22.5 35 0 min 54 lux 6,2 C 8,1 C
13.07.2020 05:00 8,0 C 88 % 1023,1 hPa 0,0 mm 0,0 km/h (0 Bft) NO22.5 35 0 min 0 lux 6,1 C 8,0 C
13.07.2020 04:45 8,0 C 88 % 1023,1 hPa 0,0 mm 0,0 km/h (0 Bft) NO22.5 35 0 min 0 lux 6,1 C 8,0 C
13.07.2020 04:30 8,2 C 87 % 1023,1 hPa 0,0 mm 0,0 km/h (0 Bft) NO22.5 35 0 min 0 lux 6,2 C 8,2 C
13.07.2020 04:15 8,4 C 87 % 1023,1 hPa 0,0 mm 0,0 km/h (0 Bft) NO22.5 35 0 min 0 lux 6,4 C 8,4 C
13.07.2020 04:00 8,5 C 87 % 1023,1 hPa 0,0 mm 0,0 km/h (0 Bft) NO22.5 35 0 min 0 lux 6,5 C 8,5 C
13.07.2020 03:45 8,6 C 86 % 1023,1 hPa 0,0 mm 0,0 km/h (0 Bft) NO22.5 35 0 min 0 lux 6,4 C 8,6 C
13.07.2020 03:30 8,7 C 86 % 1024,1 hPa 0,0 mm 0,0 km/h (0 Bft) NO22.5 35 0 min 0 lux 6,5 C 8,7 C
13.07.2020 03:15 8,9 C 85 % 1024,0 hPa 0,0 mm 0,0 km/h (0 Bft) NO22.5 35 0 min 0 lux 6,5 C 8,9 C
13.07.2020 03:00 9,1 C 85 % 1024,0 hPa 0,0 mm 0,0 km/h (0 Bft) NO22.5 35 0 min 0 lux 6,7 C 9,1 C
13.07.2020 02:45 9,2 C 84 % 1024,0 hPa 0,0 mm 0,0 km/h (0 Bft) NO22.5 35 0 min 0 lux 6,6 C 9,2 C
13.07.2020 02:30 9,2 C 84 % 1024,0 hPa 0,0 mm 0,0 km/h (0 Bft) NO22.5 35 0 min 0 lux 6,6 C 9,2 C
13.07.2020 02:15 9,3 C 83 % 1024,0 hPa 0,0 mm 0,0 km/h (0 Bft) NO22.5 35 0 min 0 lux 6,6 C 9,3 C
13.07.2020 02:00 9,5 C 83 % 1024,0 hPa 0,0 mm 0,0 km/h (0 Bft) NO22.5 35 0 min 0 lux 6,8 C 9,5 C
13.07.2020 01:45 9,7 C 82 % 1024,0 hPa 0,0 mm 0,0 km/h (0 Bft) NO22.5 35 0 min 0 lux 6,8 C 9,7 C
13.07.2020 01:30 9,8 C 81 % 1024,0 hPa 0,0 mm 0,0 km/h (0 Bft) NO22.5 35 0 min 0 lux 6,7 C 9,8 C
13.07.2020 01:15 10,0 C 81 % 1024,0 hPa 0,0 mm 0,0 km/h (0 Bft) NO22.5 35 0 min 0 lux 6,9 C 10,0 C
13.07.2020 01:00 10,1 C 80 % 1024,0 hPa 0,0 mm 0,0 km/h (0 Bft) NO22.5 35 0 min 0 lux 6,8 C 10,1 C
13.07.2020 00:45 10,3 C 80 % 1023,9 hPa 0,0 mm 0,0 km/h (0 Bft) NO22.5 35 0 min 0 lux 7,0 C 10,3 C
13.07.2020 00:30 10,3 C 79 % 1023,9 hPa 0,0 mm 0,0 km/h (0 Bft) NO22.5 35 0 min 0 lux 6,8 C 10,3 C
13.07.2020 00:15 10,4 C 78 % 1023,9 hPa 0,0 mm 0,0 km/h (0 Bft) NO22.5 35 0 min 0 lux 6,7 C 10,4 C
13.07.2020 00:00 10,8 C 77 % 1023,9 hPa 0,0 mm 0,0 km/h (0 Bft) NO22.5 35 0 min 0 lux 6,9 C 10,8 C
_ Min-Zeit 04:45 14:30 14:15 - 00:00 - - - - 04:45 04:45
Minimum _ 8,0 C 36 % 1018,7 hPa - 0,0 km/h (0 Bft) - - - - 6,1 C 8,0 C
_ Max-Zeit 14:15 07:15 03:30 00:00 10:00 - - 07:15 14:45 10:45 14:15
Maximum _ 26,4 C 91 % 1024,1 hPa 0,0 mm 20,0 km/h
N-NO (4 Bft)
- - 15 min 108 klux 12,6 C 26,4 C
Durchschnitt _ 15,7 C 69 % 1022,1 hPa #0,0 mm 3,4 km/h (1 Bft) O - #7:45 h 36,9 klux 9,0 C 15,7 C